Time;durP1;ratioP1;P1;durP2;ratioP2;P2;SDS_P1;SDS_P2;PMS_P1;PMS_P2;Temp;Humidity;BMP_temperature;BMP_pressure;BME280_temperature;BME280_humidity;BME280_pressure;Samples;Min_cycle;Max_cycle;Signal;HPM_P1;HPM_P2
2022/10/19 00:02:13;;;;;;;3.03;1.60;;;7.20;99.90;;;;;;5095528;28;20052;-76
2022/10/19 00:04:39;;;;;;;0.00;0.00;;;7.20;99.90;;;;;;5077465;28;20355;-76
2022/10/19 00:07:05;;;;;;;6.63;4.50;;;7.20;99.90;;;;;;5094410;28;20114;-74
2022/10/19 00:09:32;;;;;;;1.00;1.00;;;7.10;99.90;;;;;;5084921;28;20031;-75
2022/10/19 00:11:58;;;;;;;0.00;0.00;;;7.10;99.90;;;;;;5104132;28;20540;-75
2022/10/19 00:14:24;;;;;;;0.00;0.00;;;7.10;99.90;;;;;;5107587;28;20019;-75
2022/10/19 00:16:52;;;;;;;17.80;9.27;;;7.10;99.90;;;;;;5108077;28;20089;-75
2022/10/19 00:19:21;;;;;;;11.68;6.47;;;7.00;99.90;;;;;;5107119;28;20015;-76
2022/10/19 00:21:47;;;;;;;22.55;5.00;;;6.80;99.90;;;;;;5102122;28;20494;-76
2022/10/19 00:24:14;;;;;;;6.32;2.95;;;6.70;99.90;;;;;;5091253;28;20103;-76
2022/10/19 00:26:41;;;;;;;22.05;8.52;;;6.60;99.90;;;;;;5097690;28;20048;-76
2022/10/19 00:29:07;;;;;;;25.85;9.00;;;6.60;99.90;;;;;;5096093;28;20095;-76
2022/10/19 00:31:33;;;;;;;0.25;0.25;;;6.60;99.90;;;;;;5095236;28;20020;-75
2022/10/19 00:34:00;;;;;;;26.65;8.80;;;6.70;99.90;;;;;;5076906;28;20024;-75
2022/10/19 00:36:35;;;;;;;3.60;3.30;;;6.80;99.90;;;;;;5077047;28;20028;-74
2022/10/19 00:39:04;;;;;;;1.00;1.00;;;6.70;99.90;;;;;;5077429;28;20039;-76
2022/10/19 00:41:35;;;;;;;0.95;0.93;;;6.70;99.90;;;;;;5094991;28;20020;-76
2022/10/19 00:44:05;;;;;;;4.30;3.67;;;6.80;99.90;;;;;;5056647;28;20040;-75
2022/10/19 00:46:33;;;;;;;14.95;2.47;;;6.90;99.90;;;;;;5074523;28;20021;-77
2022/10/19 00:49:22;;;;;;;0.35;0.35;;;6.80;99.90;;;;;;5074681;28;20036;-75
2022/10/19 00:51:54;;;;;;;1.80;0.52;;;6.90;99.90;;;;;;5077245;28;20026;-75
2022/10/19 00:54:22;;;;;;;1.00;1.00;;;6.90;99.90;;;;;;5094369;28;20021;-75
2022/10/19 00:56:50;;;;;;;10.32;4.18;;;6.90;99.90;;;;;;5095747;28;20044;-76
2022/10/19 00:59:23;;;;;;;3.63;3.42;;;6.80;99.90;;;;;;5092995;28;20355;-76
2022/10/19 01:01:52;;;;;;;3.95;3.58;;;6.70;99.90;;;;;;5095873;28;20032;-75
2022/10/19 01:04:20;;;;;;;0.00;0.00;;;6.80;99.90;;;;;;5078971;28;20024;-75
2022/10/19 01:06:46;;;;;;;5.50;4.28;;;6.80;99.90;;;;;;5098109;28;20020;-75
2022/10/19 01:09:13;;;;;;;12.82;3.67;;;6.90;99.90;;;;;;5066631;28;20075;-74
2022/10/19 01:12:05;;;;;;;9.25;5.72;;;6.90;99.90;;;;;;5079141;28;20066;-75
2022/10/19 01:15:02;;;;;;;0.10;0.10;;;6.80;99.90;;;;;;5087292;28;20032;-75
2022/10/19 01:17:54;;;;;;;0.00;0.00;;;6.90;99.90;;;;;;5064679;28;20028;-75
2022/10/19 01:20:39;;;;;;;0.43;0.17;;;6.90;99.90;;;;;;5072521;28;20031;-75
2022/10/19 01:23:05;;;;;;;5.25;4.95;;;7.00;99.90;;;;;;5074130;28;20107;-75
2022/10/19 01:26:10;;;;;;;1.35;0.70;;;7.10;99.90;;;;;;5077031;28;20020;-75
2022/10/19 01:29:10;;;;;;;0.00;0.00;;;7.10;99.90;;;;;;5078721;28;20020;-75
2022/10/19 01:32:04;;;;;;;0.20;0.20;;;7.20;99.90;;;;;;5088419;28;20024;-74
2022/10/19 01:34:38;;;;;;;0.00;0.00;;;7.10;99.90;;;;;;5072852;28;20087;-74
2022/10/19 01:37:30;;;;;;;6.15;3.45;;;7.10;99.90;;;;;;5090105;28;20115;-74
2022/10/19 01:39:56;;;;;;;0.00;0.00;;;7.10;99.90;;;;;;5087424;28;20394;-74
2022/10/19 01:42:37;;;;;;;0.10;0.10;;;7.10;99.90;;;;;;5081519;28;20496;-75
2022/10/19 01:45:29;;;;;;;0.70;0.68;;;7.20;99.90;;;;;;5107111;28;20019;-74
2022/10/19 01:48:02;;;;;;;0.00;0.00;;;7.10;99.90;;;;;;5110759;28;20020;-74
2022/10/19 01:50:40;;;;;;;6.30;2.63;;;7.20;99.90;;;;;;5113563;28;20016;-74
2022/10/19 01:53:09;;;;;;;5.68;5.28;;;7.10;99.90;;;;;;5113704;28;20027;-75
2022/10/19 01:55:41;;;;;;;1.38;0.63;;;7.10;99.90;;;;;;5095547;28;20023;-74
2022/10/19 01:58:11;;;;;;;0.00;0.00;;;7.10;99.90;;;;;;5099598;28;20359;-75
2022/10/19 02:00:41;;;;;;;0.20;0.20;;;7.20;99.90;;;;;;5109033;28;20092;-75
2022/10/19 02:03:09;;;;;;;0.17;0.17;;;7.30;99.90;;;;;;5106976;28;20028;-75
2022/10/19 02:05:37;;;;;;;1.80;1.65;;;7.40;99.90;;;;;;5098160;28;20019;-74
2022/10/19 02:08:10;;;;;;;0.00;0.00;;;7.30;99.90;;;;;;5075082;28;20356;-74
2022/10/19 02:10:38;;;;;;;4.38;4.13;;;7.40;99.90;;;;;;5105086;28;20030;-74
2022/10/19 02:13:07;;;;;;;0.10;0.10;;;7.40;99.90;;;;;;5099820;28;20035;-74
2022/10/19 02:15:38;;;;;;;0.00;0.00;;;7.40;99.90;;;;;;5090648;28;20053;-74
2022/10/19 02:18:06;;;;;;;0.00;0.00;;;7.50;99.90;;;;;;5094435;28;20080;-75
2022/10/19 02:20:35;;;;;;;1.13;1.13;;;7.60;99.90;;;;;;5105239;28;20028;-73
2022/10/19 02:23:07;;;;;;;0.00;0.00;;;7.60;99.90;;;;;;5082421;28;20039;-75
2022/10/19 02:25:36;;;;;;;4.47;1.15;;;7.60;99.90;;;;;;5105471;28;20481;-77
2022/10/19 02:28:04;;;;;;;14.40;7.07;;;7.50;99.90;;;;;;5086568;28;20624;-73
2022/10/19 02:30:37;;;;;;;8.90;4.32;;;7.50;99.90;;;;;;5090660;28;20028;-74
2022/10/19 02:33:11;;;;;;;4.50;4.28;;;7.50;99.90;;;;;;5088433;28;20028;-73
2022/10/19 02:35:37;;;;;;;0.03;0.00;;;7.50;99.90;;;;;;5090993;28;20028;-72
2022/10/19 02:38:05;;;;;;;7.13;3.40;;;7.60;99.90;;;;;;5090185;28;20073;-73
2022/10/19 02:40:35;;;;;;;0.00;0.00;;;7.60;99.90;;;;;;5104269;28;20474;-75
2022/10/19 02:43:09;;;;;;;4.85;2.63;;;7.70;99.90;;;;;;5106490;28;20090;-75
2022/10/19 02:45:43;;;;;;;1.23;1.23;;;7.70;99.90;;;;;;5088010;28;20046;-74
2022/10/19 02:48:22;;;;;;;0.98;0.98;;;7.70;99.90;;;;;;5097361;28;20536;-75
2022/10/19 02:50:50;;;;;;;9.13;4.38;;;7.80;99.90;;;;;;5105924;28;20024;-76
2022/10/19 02:53:17;;;;;;;1.25;1.25;;;7.70;99.90;;;;;;5109835;28;20019;-73
2022/10/19 02:55:44;;;;;;;3.92;3.72;;;7.70;99.90;;;;;;5090639;28;20122;-73
2022/10/19 02:58:10;;;;;;;17.60;4.97;;;7.70;99.90;;;;;;5096501;28;20020;-71
2022/10/19 03:00:37;;;;;;;2.47;2.28;;;7.80;99.90;;;;;;5081383;28;20020;-73
2022/10/19 03:03:03;;;;;;;6.13;5.55;;;7.80;99.90;;;;;;5095732;28;20569;-72
2022/10/19 03:05:29;;;;;;;3.63;1.70;;;7.80;99.90;;;;;;5069001;28;20032;-73
2022/10/19 03:07:55;;;;;;;1.67;0.65;;;7.70;99.90;;;;;;5097902;28;20085;-72
2022/10/19 03:10:21;;;;;;;10.60;5.82;;;7.90;99.90;;;;;;5102700;28;20086;-72
2022/10/19 03:12:48;;;;;;;1.05;0.77;;;7.90;99.90;;;;;;5100277;28;20023;-73
2022/10/19 03:15:17;;;;;;;0.20;0.20;;;7.90;99.90;;;;;;5107701;28;20383;-73
2022/10/19 03:17:44;;;;;;;0.22;0.22;;;8.00;99.90;;;;;;5082581;28;20039;-71
2022/10/19 03:20:11;;;;;;;15.27;4.70;;;8.00;99.90;;;;;;5104220;28;20023;-73
2022/10/19 03:22:37;;;;;;;2.05;1.88;;;7.90;99.90;;;;;;5080617;28;20061;-73
2022/10/19 03:25:03;;;;;;;4.40;3.88;;;8.00;99.90;;;;;;5103866;28;20478;-72
2022/10/19 03:27:29;;;;;;;4.50;0.77;;;7.90;99.90;;;;;;5102019;28;20020;-72
2022/10/19 03:29:55;;;;;;;2.33;2.13;;;8.00;99.90;;;;;;5096148;28;20127;-71
2022/10/19 03:32:21;;;;;;;1.30;1.20;;;7.90;99.90;;;;;;5079661;28;20393;-72
2022/10/19 03:34:47;;;;;;;0.35;0.30;;;7.90;99.90;;;;;;5099857;27;20047;-83
2022/10/19 03:37:14;;;;;;;0.20;0.20;;;8.10;99.90;;;;;;5104117;28;20209;-81
2022/10/19 03:39:40;;;;;;;0.95;0.95;;;8.00;99.90;;;;;;5087801;28;20032;-79
2022/10/19 03:42:06;;;;;;;0.20;0.20;;;8.00;99.90;;;;;;5106685;28;20051;-79
2022/10/19 03:44:32;;;;;;;1.70;1.65;;;8.10;99.90;;;;;;5092651;27;20023;-79
2022/10/19 03:46:58;;;;;;;5.72;0.80;;;8.20;99.90;;;;;;5105092;28;20027;-80
2022/10/19 03:49:24;;;;;;;1.17;0.32;;;8.10;99.90;;;;;;5108673;27;20377;-80
2022/10/19 03:51:50;;;;;;;0.28;0.28;;;8.10;99.90;;;;;;5107299;28;20031;-79
2022/10/19 03:54:17;;;;;;;0.43;0.32;;;8.20;99.90;;;;;;5085898;28;20031;-80
2022/10/19 03:56:43;;;;;;;0.00;0.00;;;8.50;99.90;;;;;;5082775;28;20055;-78
2022/10/19 03:59:13;;;;;;;0.00;0.00;;;8.10;99.90;;;;;;5088604;28;20032;-80
2022/10/19 04:01:43;;;;;;;3.88;0.95;;;8.30;99.90;;;;;;5087146;28;20038;-80
2022/10/19 04:04:13;;;;;;;0.75;0.30;;;8.40;99.90;;;;;;5082919;28;20020;-79
2022/10/19 04:06:42;;;;;;;0.55;0.55;;;8.20;99.90;;;;;;5109785;28;20031;-79
2022/10/19 04:09:10;;;;;;;0.10;0.10;;;8.10;99.90;;;;;;5108454;28;20016;-80
2022/10/19 04:11:37;;;;;;;0.80;0.80;;;8.20;99.90;;;;;;5113743;28;20077;-79
2022/10/19 04:14:06;;;;;;;0.00;0.00;;;8.40;99.90;;;;;;5106609;27;20078;-79
2022/10/19 04:16:33;;;;;;;0.00;0.00;;;8.30;99.90;;;;;;5086414;27;20072;-79
2022/10/19 04:19:13;;;;;;;0.55;0.55;;;8.80;99.90;;;;;;5113953;27;20482;-81
2022/10/19 04:21:40;;;;;;;0.17;0.17;;;8.80;99.90;;;;;;5082864;28;20366;-80
2022/10/19 04:24:12;;;;;;;0.00;0.00;;;9.00;99.90;;;;;;5087965;28;20023;-83
2022/10/19 04:26:50;;;;;;;1.05;0.85;;;9.00;99.90;;;;;;5106431;28;20023;-82
2022/10/19 04:29:19;;;;;;;0.00;0.00;;;9.20;99.90;;;;;;5106877;28;20046;-81
2022/10/19 04:31:47;;;;;;;0.00;0.00;;;9.30;99.90;;;;;;5109845;28;20394;-82
2022/10/19 04:34:13;;;;;;;0.00;0.00;;;9.40;99.90;;;;;;5098353;28;20027;-81
2022/10/19 04:36:39;;;;;;;1.75;0.80;;;9.60;99.90;;;;;;5107145;28;20081;-83
2022/10/19 04:39:06;;;;;;;0.98;0.98;;;9.40;99.90;;;;;;5107299;27;20038;-82
2022/10/19 04:41:33;;;;;;;0.10;0.10;;;9.50;99.90;;;;;;5083191;27;20059;-81
2022/10/19 04:44:01;;;;;;;0.00;0.00;;;9.50;99.90;;;;;;5092300;28;20031;-82
2022/10/19 04:46:28;;;;;;;0.10;0.10;;;9.40;99.90;;;;;;5110861;28;20020;-84
2022/10/19 04:48:55;;;;;;;3.05;1.23;;;9.40;99.90;;;;;;5109282;27;20074;-82
2022/10/19 04:51:22;;;;;;;9.75;7.63;;;9.40;99.90;;;;;;5104681;27;20088;-83
2022/10/19 04:53:49;;;;;;;1.48;0.35;;;9.20;99.90;;;;;;5121178;27;20467;-84
2022/10/19 04:56:18;;;;;;;0.10;0.10;;;9.30;99.90;;;;;;5112740;28;20032;-81
2022/10/19 04:58:46;;;;;;;2.40;1.27;;;9.60;99.90;;;;;;5107357;28;20524;-81
2022/10/19 05:01:18;;;;;;;1.38;1.10;;;9.50;99.90;;;;;;5109773;28;20089;-80
2022/10/19 05:03:45;;;;;;;8.68;3.90;;;9.40;99.90;;;;;;5102647;28;20027;-82
2022/10/19 05:06:13;;;;;;;0.00;0.00;;;9.20;99.90;;;;;;5107062;28;20036;-79
2022/10/19 05:08:39;;;;;;;1.83;1.63;;;9.40;99.90;;;;;;5087141;28;20055;-80
2022/10/19 05:11:15;;;;;;;1.45;1.38;;;9.70;99.90;;;;;;5096745;28;20027;-77
2022/10/19 05:13:42;;;;;;;0.20;0.20;;;9.80;99.90;;;;;;5108213;28;20046;-79
2022/10/19 05:16:12;;;;;;;1.75;1.65;;;9.80;99.90;;;;;;5108227;27;20024;-77
2022/10/19 05:18:38;;;;;;;0.00;0.00;;;9.60;99.90;;;;;;5097273;27;20414;-78
2022/10/19 05:21:10;;;;;;;3.50;2.88;;;9.90;99.90;;;;;;5105409;27;20115;-80
2022/10/19 05:23:37;;;;;;;0.45;0.25;;;9.80;99.90;;;;;;5104994;27;20111;-79
2022/10/19 05:26:07;;;;;;;0.00;0.00;;;9.90;99.90;;;;;;5101088;28;20074;-79
2022/10/19 05:28:35;;;;;;;3.88;1.70;;;10.30;99.90;;;;;;5101045;27;20077;-78
2022/10/19 05:31:13;;;;;;;0.50;0.50;;;10.20;99.90;;;;;;5095307;28;20032;-80
2022/10/19 05:33:41;;;;;;;0.00;0.00;;;9.90;99.90;;;;;;5102186;28;20024;-78
2022/10/19 05:36:14;;;;;;;3.83;3.50;;;10.30;99.90;;;;;;5107445;28;20051;-78
2022/10/19 05:38:41;;;;;;;1.90;1.48;;;10.40;99.90;;;;;;5103904;27;20016;-81
2022/10/19 05:41:08;;;;;;;1.73;1.63;;;10.60;99.90;;;;;;5108247;28;20047;-81
2022/10/19 05:43:34;;;;;;;0.00;0.00;;;10.40;99.90;;;;;;5103343;27;20048;-82
2022/10/19 05:46:05;;;;;;;4.18;3.05;;;10.60;99.90;;;;;;5106114;27;20175;-80
2022/10/19 05:48:34;;;;;;;0.95;0.95;;;10.10;99.90;;;;;;5101310;28;20020;-77
2022/10/19 05:51:02;;;;;;;0.88;0.88;;;10.40;99.90;;;;;;5109477;28;20076;-79
2022/10/19 05:53:28;;;;;;;3.50;1.45;;;10.40;99.90;;;;;;5101272;27;20031;-77
2022/10/19 05:55:55;;;;;;;4.53;4.18;;;10.30;99.90;;;;;;5102879;28;20032;-79
2022/10/19 05:58:21;;;;;;;2.72;2.17;;;10.40;99.90;;;;;;5074986;28;20045;-76
2022/10/19 06:00:56;;;;;;;0.25;0.25;;;10.20;99.90;;;;;;5103120;27;20038;-77
2022/10/19 06:03:23;;;;;;;4.70;3.08;;;10.20;99.90;;;;;;5100839;28;20028;-78
2022/10/19 06:05:50;;;;;;;1.23;1.02;;;9.90;99.90;;;;;;5101116;27;20047;-78
2022/10/19 06:08:17;;;;;;;4.25;2.75;;;10.20;99.90;;;;;;5103322;28;20098;-80
2022/10/19 06:10:43;;;;;;;1.17;1.08;;;10.20;99.90;;;;;;5110916;28;20157;-80
2022/10/19 06:13:10;;;;;;;2.88;2.78;;;10.10;99.90;;;;;;5104885;28;20055;-81
2022/10/19 06:15:39;;;;;;;2.58;1.27;;;10.20;99.90;;;;;;5106094;28;20034;-79
2022/10/19 06:18:12;;;;;;;7.72;1.23;;;10.30;99.90;;;;;;5096778;28;20027;-81
2022/10/19 06:20:40;;;;;;;3.22;2.45;;;10.20;99.90;;;;;;5100601;27;20094;-81
2022/10/19 06:23:07;;;;;;;1.45;1.25;;;10.40;99.90;;;;;;5094647;28;20616;-81
2022/10/19 06:25:34;;;;;;;3.20;2.33;;;10.30;99.90;;;;;;5104080;27;20035;-82
2022/10/19 06:28:00;;;;;;;4.75;4.03;;;10.30;99.90;;;;;;5084610;28;20023;-81
2022/10/19 06:30:27;;;;;;;3.83;3.45;;;10.00;99.90;;;;;;5108211;28;20043;-81
2022/10/19 06:32:53;;;;;;;1.10;0.82;;;10.00;99.90;;;;;;5110463;28;20024;-81
2022/10/19 06:35:19;;;;;;;0.60;0.60;;;10.00;99.90;;;;;;5101575;28;20024;-81
2022/10/19 06:37:47;;;;;;;0.20;0.20;;;10.00;99.90;;;;;;5108647;27;20043;-80
2022/10/19 06:40:15;;;;;;;18.52;9.65;;;10.00;99.90;;;;;;5113597;28;20035;-80
2022/10/19 06:42:42;;;;;;;4.10;3.47;;;9.90;99.90;;;;;;5089488;28;20046;-80
2022/10/19 06:45:09;;;;;;;0.03;0.03;;;9.90;99.90;;;;;;5110255;28;20028;-79
2022/10/19 06:47:36;;;;;;;4.05;2.28;;;9.90;99.90;;;;;;5088805;28;20125;-81
2022/10/19 06:50:04;;;;;;;0.03;0.03;;;10.00;99.90;;;;;;5097339;28;20020;-80
2022/10/19 06:52:30;;;;;;;1.42;1.27;;;10.10;99.90;;;;;;5096025;28;20020;-79
2022/10/19 06:54:57;;;;;;;7.15;3.70;;;10.20;99.90;;;;;;5082960;28;20054;-79
2022/10/19 06:57:23;;;;;;;2.72;2.38;;;10.10;99.90;;;;;;5102373;28;20077;-80
2022/10/19 06:59:51;;;;;;;5.03;4.57;;;10.10;99.90;;;;;;5095120;28;20028;-79
2022/10/19 07:02:18;;;;;;;3.67;2.05;;;9.90;99.90;;;;;;5101227;28;20031;-80
2022/10/19 07:04:44;;;;;;;3.03;1.50;;;10.00;99.90;;;;;;5104860;28;20073;-79
2022/10/19 07:07:10;;;;;;;4.03;3.78;;;10.00;99.90;;;;;;5083645;28;20051;-77
2022/10/19 07:09:38;;;;;;;2.40;2.25;;;9.80;99.90;;;;;;5096833;28;20031;-76
2022/10/19 07:12:14;;;;;;;11.40;5.82;;;10.00;99.90;;;;;;5098948;28;20414;-77
2022/10/19 07:14:46;;;;;;;3.53;2.53;;;10.00;99.90;;;;;;5104840;28;20031;-78
2022/10/19 07:17:13;;;;;;;9.77;5.47;;;10.10;99.90;;;;;;5104163;27;20085;-78
2022/10/19 07:19:40;;;;;;;3.72;3.38;;;9.90;99.90;;;;;;5087533;28;20028;-78
2022/10/19 07:22:06;;;;;;;0.08;0.08;;;10.00;99.90;;;;;;5088445;28;20027;-78
2022/10/19 07:24:34;;;;;;;3.55;2.08;;;10.00;99.90;;;;;;5090269;28;20123;-77
2022/10/19 07:27:02;;;;;;;1.95;1.85;;;10.20;99.90;;;;;;5113271;27;20157;-78
2022/10/19 07:29:28;;;;;;;1.00;0.22;;;10.10;99.90;;;;;;5110709;27;20095;-77
2022/10/19 07:31:56;;;;;;;0.10;0.10;;;10.20;99.90;;;;;;5111849;27;20102;-77
2022/10/19 07:34:22;;;;;;;4.32;3.92;;;10.30;99.90;;;;;;5102569;27;20027;-77
2022/10/19 07:36:48;;;;;;;0.00;0.00;;;10.20;99.90;;;;;;5105687;28;20012;-81
2022/10/19 07:39:18;;;;;;;2.95;2.65;;;10.20;99.90;;;;;;5104109;27;20027;-80
2022/10/19 07:41:45;;;;;;;1.70;1.55;;;10.20;99.90;;;;;;5104705;27;20036;-81
2022/10/19 07:44:13;;;;;;;1.90;1.80;;;10.30;99.90;;;;;;5104746;27;20163;-80
2022/10/19 07:46:39;;;;;;;3.33;3.13;;;10.10;99.90;;;;;;5106389;27;20027;-82
2022/10/19 07:49:08;;;;;;;2.40;1.83;;;10.00;99.90;;;;;;5105473;27;20035;-80
2022/10/19 07:51:39;;;;;;;1.33;1.23;;;10.00;99.90;;;;;;5102315;27;20503;-81
2022/10/19 07:54:05;;;;;;;0.00;0.00;;;10.10;99.90;;;;;;5108221;27;20038;-79
2022/10/19 07:56:31;;;;;;;1.65;1.55;;;10.30;99.90;;;;;;5108208;27;20031;-80
2022/10/19 07:58:59;;;;;;;0.30;0.30;;;10.30;99.90;;;;;;5082483;28;20032;-81
2022/10/19 08:01:28;;;;;;;2.25;1.75;;;10.40;99.90;;;;;;5093358;27;20377;-81
2022/10/19 08:03:56;;;;;;;1.60;1.50;;;10.20;99.90;;;;;;5111863;27;20050;-80
2022/10/19 08:06:23;;;;;;;0.43;0.43;;;10.20;99.90;;;;;;5119433;27;20035;-80
2022/10/19 08:08:50;;;;;;;1.85;0.68;;;10.20;99.90;;;;;;5110934;28;20015;-80
2022/10/19 08:11:23;;;;;;;1.75;1.45;;;10.20;99.90;;;;;;5128349;27;20031;-80
2022/10/19 08:13:50;;;;;;;3.13;2.47;;;10.20;99.90;;;;;;5131188;27;20050;-81
2022/10/19 08:16:31;;;;;;;2.67;1.00;;;10.20;99.90;;;;;;5125587;27;20017;-81
2022/10/19 08:19:00;;;;;;;0.38;0.38;;;10.20;99.90;;;;;;5119189;28;20485;-80
2022/10/19 08:21:27;;;;;;;0.00;0.00;;;10.60;99.90;;;;;;5122300;27;20075;-79
2022/10/19 08:23:53;;;;;;;0.10;0.10;;;10.50;99.90;;;;;;5086715;27;20028;-79
2022/10/19 08:26:20;;;;;;;10.70;5.20;;;10.50;99.90;;;;;;5104073;27;20019;-81
2022/10/19 08:28:46;;;;;;;0.40;0.40;;;10.10;99.90;;;;;;5104671;27;20111;-79
2022/10/19 08:31:18;;;;;;;0.00;0.00;;;10.00;99.90;;;;;;5090490;27;20121;-81
2022/10/19 08:33:44;;;;;;;0.00;0.00;;;10.30;99.90;;;;;;5082870;28;20031;-81
2022/10/19 08:36:13;;;;;;;5.40;0.55;;;10.30;99.90;;;;;;5107089;27;20533;-80
2022/10/19 08:38:42;;;;;;;0.00;0.00;;;10.30;99.90;;;;;;5103174;28;20023;-81
2022/10/19 08:41:20;;;;;;;0.47;0.45;;;10.30;99.90;;;;;;5107549;27;20031;-80
2022/10/19 08:43:59;;;;;;;1.95;1.85;;;10.10;99.90;;;;;;5107600;27;20051;-79
2022/10/19 08:46:56;;;;;;;0.98;0.95;;;10.30;99.90;;;;;;5106122;27;20116;-79
2022/10/19 08:49:26;;;;;;;4.63;4.20;;;10.10;99.90;;;;;;5102602;28;20591;-80
2022/10/19 08:52:09;;;;;;;0.00;0.00;;;10.10;99.90;;;;;;5109647;27;20024;-81
2022/10/19 08:55:14;;;;;;;0.28;0.22;;;10.00;99.90;;;;;;5106702;27;20512;-80
2022/10/19 08:57:49;;;;;;;0.52;0.52;;;9.90;99.90;;;;;;5002545;28;20137;-80
2022/10/19 09:00:40;;;;;;;0.00;0.00;;;9.80;99.90;;;;;;5074761;28;20040;-81
2022/10/19 09:03:27;;;;;;;1.15;1.15;;;9.90;99.90;;;;;;5084835;28;20043;-80
2022/10/19 09:05:57;;;;;;;0.43;0.38;;;9.90;99.90;;;;;;5104505;27;20023;-80
2022/10/19 09:08:23;;;;;;;2.25;1.35;;;9.80;99.90;;;;;;5082260;28;20024;-79
2022/10/19 09:10:52;;;;;;;0.15;0.15;;;9.80;99.90;;;;;;5100065;27;20031;-79
2022/10/19 09:13:31;;;;;;;0.60;0.60;;;9.80;99.90;;;;;;5088525;28;20090;-79
2022/10/19 09:15:57;;;;;;;4.90;1.40;;;9.70;99.90;;;;;;5097950;28;20020;-79
2022/10/19 09:18:29;;;;;;;0.47;0.47;;;9.70;99.90;;;;;;5102494;28;20027;-79
2022/10/19 09:21:05;;;;;;;0.38;0.38;;;9.80;99.90;;;;;;5089061;28;20493;-82
2022/10/19 09:23:37;;;;;;;3.78;2.47;;;9.90;99.90;;;;;;5089771;28;20028;-79
2022/10/19 09:26:10;;;;;;;0.57;0.57;;;9.70;99.90;;;;;;5110791;27;20028;-79
2022/10/19 09:29:02;;;;;;;0.30;0.30;;;9.60;99.90;;;;;;5104185;27;20073;-83
2022/10/19 09:31:32;;;;;;;1.02;0.95;;;9.60;99.90;;;;;;5111116;27;20034;-84
2022/10/19 09:34:14;;;;;;;2.63;2.42;;;9.80;99.90;;;;;;5102024;28;20024;-83
2022/10/19 09:36:44;;;;;;;0.47;0.47;;;9.50;99.90;;;;;;5108779;27;20031;-83
2022/10/19 09:39:14;;;;;;;0.03;0.03;;;9.50;99.90;;;;;;5101812;27;20430;-77
2022/10/19 09:41:48;;;;;;;0.00;0.00;;;9.40;99.90;;;;;;5088177;28;20559;-76
2022/10/19 09:44:15;;;;;;;2.75;1.35;;;9.40;99.90;;;;;;5101499;27;20065;-75
2022/10/19 09:46:44;;;;;;;10.75;2.30;;;9.30;99.90;;;;;;5102050;28;20015;-76
2022/10/19 09:49:10;;;;;;;2.50;2.30;;;9.20;99.90;;;;;;5101380;28;20084;-76
2022/10/19 09:51:54;;;;;;;4.47;3.58;;;9.00;99.90;;;;;;5079324;28;20149;-75
2022/10/19 09:54:34;;;;;;;1.13;0.60;;;8.90;99.90;;;;;;5099098;27;20023;-74
2022/10/19 09:57:01;;;;;;;2.67;2.42;;;8.90;99.90;;;;;;5086937;28;20410;-76
2022/10/19 09:59:35;;;;;;;1.85;0.98;;;8.90;99.90;;;;;;5084820;28;20110;-77
2022/10/19 10:02:16;;;;;;;1.27;1.10;;;8.80;99.90;;;;;;5103579;27;20500;-77
2022/10/19 10:04:47;;;;;;;1.10;1.08;;;8.80;99.90;;;;;;5100163;28;20429;-78
2022/10/19 10:07:16;;;;;;;0.20;0.20;;;8.90;99.90;;;;;;5092123;28;20470;-79
2022/10/19 10:09:43;;;;;;;2.97;2.78;;;8.90;99.90;;;;;;5108845;27;20081;-80
2022/10/19 10:12:12;;;;;;;0.40;0.40;;;8.80;99.90;;;;;;5099302;28;20024;-78
2022/10/19 10:14:40;;;;;;;5.72;2.85;;;9.00;99.90;;;;;;5085637;28;20076;-80
2022/10/19 10:17:15;;;;;;;0.00;0.00;;;8.70;99.90;;;;;;5103883;28;20027;-80
2022/10/19 10:20:04;;;;;;;0.35;0.35;;;8.50;99.90;;;;;;5100553;28;20022;-79
2022/10/19 10:22:33;;;;;;;0.57;0.43;;;8.50;99.90;;;;;;5110952;27;20015;-76
2022/10/19 10:24:59;;;;;;;0.35;0.30;;;8.60;99.90;;;;;;5081203;28;20027;-78
2022/10/19 10:27:29;;;;;;;1.25;1.25;;;8.50;99.90;;;;;;5083470;28;20027;-77
2022/10/19 10:29:55;;;;;;;0.73;0.70;;;8.40;99.90;;;;;;5102937;28;20043;-76
2022/10/19 10:32:22;;;;;;;0.05;0.05;;;8.40;99.90;;;;;;5087443;28;20076;-76
2022/10/19 10:35:04;;;;;;;0.10;0.10;;;8.40;99.90;;;;;;5083153;28;20027;-75
2022/10/19 10:37:34;;;;;;;0.35;0.30;;;8.30;99.90;;;;;;5110712;28;20110;-79
2022/10/19 10:40:01;;;;;;;0.65;0.63;;;8.20;99.90;;;;;;5105801;28;20031;-79
2022/10/19 10:42:43;;;;;;;2.42;1.08;;;8.20;99.90;;;;;;5097979;28;20036;-76
2022/10/19 10:45:25;;;;;;;1.83;0.80;;;8.00;99.90;;;;;;5076718;28;20081;-76
2022/10/19 10:47:51;;;;;;;0.00;0.00;;;8.00;99.90;;;;;;5091037;28;21419;-79
2022/10/19 10:50:31;;;;;;;0.10;0.10;;;8.30;99.90;;;;;;5080662;28;20022;-77
2022/10/19 10:53:00;;;;;;;0.85;0.85;;;8.30;99.90;;;;;;5084869;28;20024;-79
2022/10/19 10:55:27;;;;;;;0.17;0.17;;;8.20;99.90;;;;;;5097121;28;20032;-77
2022/10/19 10:58:18;;;;;;;0.13;0.13;;;8.30;99.90;;;;;;5082280;28;20028;-79
2022/10/19 11:00:47;;;;;;;0.35;0.15;;;8.00;99.90;;;;;;5118123;28;20031;-81
2022/10/19 11:03:27;;;;;;;0.80;0.60;;;8.00;99.90;;;;;;5111002;28;20019;-77
2022/10/19 11:05:59;;;;;;;0.22;0.22;;;7.90;99.90;;;;;;5103475;28;20062;-78
2022/10/19 11:08:49;;;;;;;0.10;0.08;;;7.90;99.90;;;;;;5104999;28;20020;-79
2022/10/19 11:11:20;;;;;;;0.10;0.03;;;8.00;99.90;;;;;;5108374;28;20020;-76
2022/10/19 11:14:05;;;;;;;0.15;0.15;;;8.10;99.90;;;;;;5102196;28;20028;-77
2022/10/19 11:16:37;;;;;;;3.30;0.38;;;8.00;99.90;;;;;;5096878;28;20016;-80
2022/10/19 11:19:33;;;;;;;0.85;0.85;;;8.00;99.90;;;;;;5110008;28;20019;-77
2022/10/19 11:22:30;;;;;;;3.05;2.95;;;8.10;99.90;;;;;;5100122;28;20047;-79
2022/10/19 11:25:12;;;;;;;0.10;0.10;;;8.00;99.90;;;;;;5104157;28;20035;-79
2022/10/19 11:28:11;;;;;;;0.25;0.25;;;8.00;99.90;;;;;;5086414;28;20200;-78
2022/10/19 11:31:08;;;;;;;3.63;3.28;;;7.90;99.90;;;;;;5102036;28;20457;-79
2022/10/19 11:33:59;;;;;;;0.25;0.22;;;7.90;99.90;;;;;;5102977;28;20058;-79
2022/10/19 11:37:04;;;;;;;0.00;0.00;;;8.00;99.90;;;;;;5099418;28;20527;-79
2022/10/19 11:39:39;;;;;;;1.20;1.10;;;8.10;99.90;;;;;;5097469;28;20036;-77
2022/10/19 11:42:37;;;;;;;0.77;0.77;;;8.00;99.90;;;;;;5098823;28;20044;-77
2022/10/19 11:45:23;;;;;;;1.00;0.75;;;8.00;99.90;;;;;;5039888;28;20513;-77
2022/10/19 11:48:10;;;;;;;0.00;0.00;;;7.80;99.90;;;;;;5088961;28;20032;-76
2022/10/19 11:50:45;;;;;;;4.03;1.27;;;7.80;99.90;;;;;;5102299;28;20023;-78
2022/10/19 11:53:18;;;;;;;2.70;2.58;;;7.70;99.90;;;;;;5099910;28;20042;-78
2022/10/19 11:56:03;;;;;;;0.00;0.00;;;7.60;99.90;;;;;;5110793;27;20028;-77
2022/10/19 11:58:48;;;;;;;1.08;0.98;;;7.70;99.90;;;;;;5102506;27;20102;-77
2022/10/19 12:01:28;;;;;;;0.10;0.10;;;7.50;99.90;;;;;;5086657;28;20027;-79
2022/10/19 12:04:32;;;;;;;0.75;0.55;;;7.50;99.90;;;;;;5087386;27;20026;-79
2022/10/19 12:07:30;;;;;;;0.70;0.65;;;7.50;99.90;;;;;;5037318;28;20021;-79
2022/10/19 12:10:06;;;;;;;2.75;1.98;;;7.30;99.90;;;;;;5029095;28;20021;-76
2022/10/19 12:12:35;;;;;;;6.72;5.60;;;7.40;99.90;;;;;;5098726;28;20039;-81
2022/10/19 12:15:10;;;;;;;9.52;8.88;;;7.40;99.90;;;;;;5111738;27;20493;-82
2022/10/19 12:17:40;;;;;;;5.68;3.00;;;7.40;99.90;;;;;;5105671;28;20059;-78
2022/10/19 12:20:16;;;;;;;5.60;3.22;;;7.30;99.90;;;;;;5080436;28;20066;-83
2022/10/19 12:22:42;;;;;;;0.73;0.73;;;7.30;99.90;;;;;;5117384;28;20043;-84
2022/10/19 12:25:14;;;;;;;1.98;1.88;;;7.40;99.90;;;;;;5102652;28;20114;-82
2022/10/19 12:27:41;;;;;;;4.40;3.05;;;7.20;99.90;;;;;;5094635;28;20084;-83
2022/10/19 12:30:18;;;;;;;2.83;2.25;;;7.20;99.90;;;;;;5098115;28;20023;-83
2022/10/19 12:33:14;;;;;;;0.00;0.00;;;7.20;99.90;;;;;;5086883;28;20032;-81
2022/10/19 12:36:23;;;;;;;0.63;0.63;;;7.30;99.90;;;;;;5110025;27;20552;-83
2022/10/19 12:39:03;;;;;;;0.22;0.20;;;7.20;99.90;;;;;;5028203;28;20060;-82
2022/10/19 12:41:44;;;;;;;1.25;1.00;;;7.10;99.90;;;;;;5089168;27;20036;-82
2022/10/19 12:44:19;;;;;;;0.45;0.45;;;7.10;99.90;;;;;;5086046;28;20031;-82
2022/10/19 12:46:59;;;;;;;1.08;0.70;;;7.10;99.90;;;;;;5084832;28;20355;-83
2022/10/19 12:49:28;;;;;;;1.30;0.65;;;7.20;99.90;;;;;;5103608;27;20084;-83
2022/10/19 12:51:57;;;;;;;1.05;1.05;;;7.10;99.90;;;;;;5104863;27;20028;-81
2022/10/19 12:54:26;;;;;;;1.67;1.58;;;7.10;99.90;;;;;;5106005;27;20026;-82
2022/10/19 12:56:54;;;;;;;2.67;1.00;;;7.00;99.90;;;;;;5105598;27;20032;-81
2022/10/19 12:59:26;;;;;;;0.68;0.30;;;7.00;99.90;;;;;;5103425;28;20062;-80
2022/10/19 13:01:55;;;;;;;1.75;1.65;;;6.90;99.90;;;;;;5097874;28;20051;-83
2022/10/19 13:04:32;;;;;;;0.00;0.00;;;7.10;99.90;;;;;;5105745;28;20475;-81
2022/10/19 13:07:09;;;;;;;0.35;0.35;;;7.20;99.90;;;;;;5111621;28;20019;-81
2022/10/19 13:09:48;;;;;;;1.13;1.02;;;7.10;99.90;;;;;;5087134;28;20111;-82
2022/10/19 13:12:14;;;;;;;3.53;2.33;;;7.00;99.90;;;;;;5091290;28;20373;-82
2022/10/19 13:14:56;;;;;;;1.73;1.48;;;7.00;99.90;;;;;;5087741;28;20035;-82
2022/10/19 13:17:36;;;;;;;0.60;0.50;;;7.10;99.90;;;;;;5111569;28;20425;-82
2022/10/19 13:20:15;;;;;;;1.00;0.85;;;7.20;99.90;;;;;;5113322;28;20389;-81